Time;durP1;ratioP1;P1;durP2;ratioP2;P2;SDS_P1;SDS_P2;PMS_P1;PMS_P2;Temp;Humidity;BMP_temperature;BMP_pressure;BME280_temperature;BME280_humidity;BME280_pressure;Samples;Min_cycle;Max_cycle;Signal;HPM_P1;HPM_P2
2021/12/12 00:00:01;;;;;;;2.17;1.33;;;;;;;19.72;32.32;99933.63;5153172;27;20039;-44
2021/12/12 00:02:49;;;;;;;2.60;1.33;;;;;;;19.73;32.25;99926.91;5152818;27;20050;-44
2021/12/12 00:05:20;;;;;;;2.40;1.50;;;;;;;19.74;32.25;99927.69;5153214;27;20054;-44
2021/12/12 00:07:46;;;;;;;2.42;1.40;;;;;;;19.74;32.21;99930.47;5153121;27;20652;-44
2021/12/12 00:10:18;;;;;;;2.17;1.30;;;;;;;19.70;32.25;99930.38;5152799;27;20046;-44
2021/12/12 00:12:47;;;;;;;2.40;1.20;;;;;;;19.75;32.18;99935.66;5153227;27;20042;-43
2021/12/12 00:15:16;;;;;;;2.15;1.23;;;;;;;19.74;32.16;99931.28;5152857;27;20525;-44
2021/12/12 00:17:42;;;;;;;2.13;1.40;;;;;;;19.73;32.17;99931.66;5152954;27;20088;-44
2021/12/12 00:20:12;;;;;;;2.17;1.20;;;;;;;19.72;32.21;99928.06;5152965;27;20406;-44
2021/12/12 00:22:38;;;;;;;2.85;1.40;;;;;;;19.70;32.14;99924.00;5152796;27;20050;-43
2021/12/12 00:25:06;;;;;;;2.50;1.27;;;;;;;19.73;32.17;99931.66;5152705;27;20050;-55
2021/12/12 00:27:32;;;;;;;2.03;1.20;;;;;;;19.72;32.15;99932.81;5152686;27;20047;-44
2021/12/12 00:30:02;;;;;;;2.05;1.20;;;;;;;19.72;32.15;99943.91;5153013;27;20035;-44
2021/12/12 00:32:29;;;;;;;1.90;1.10;;;;;;;19.68;32.02;99941.03;5152908;27;20121;-44
2021/12/12 00:35:01;;;;;;;2.90;1.27;;;;;;;19.70;32.20;99940.66;5152661;27;20053;-54
2021/12/12 00:37:28;;;;;;;2.25;1.30;;;;;;;19.69;32.11;99948.19;5152716;27;20039;-55
2021/12/12 00:40:00;;;;;;;2.10;1.25;;;;;;;19.69;32.14;99947.38;5152492;27;20042;-55
2021/12/12 00:42:31;;;;;;;1.95;1.02;;;;;;;19.67;32.04;99942.19;5152848;27;20418;-55
2021/12/12 00:44:59;;;;;;;1.80;1.00;;;;;;;19.70;32.06;99951.75;5152676;27;20043;-44
2021/12/12 00:47:25;;;;;;;2.38;1.38;;;;;;;19.68;32.06;99957.66;5152360;27;20053;-44
2021/12/12 00:49:52;;;;;;;1.77;1.02;;;;;;;19.67;32.08;99967.16;5152593;27;20122;-44
2021/12/12 00:52:19;;;;;;;2.05;1.20;;;;;;;19.71;32.00;99959.72;5152503;27;20066;-44
2021/12/12 00:54:46;;;;;;;2.65;1.38;;;;;;;19.70;32.00;99963.66;5151648;27;20047;-44
2021/12/12 00:57:16;;;;;;;2.10;1.13;;;;;;;19.69;32.08;99959.28;5152537;27;20065;-44
2021/12/12 00:59:44;;;;;;;2.35;1.15;;;;;;;19.69;32.12;99950.97;5152425;27;20042;-44
2021/12/12 01:02:14;;;;;;;1.80;1.10;;;;;;;19.71;32.05;99947.81;5152378;27;20041;-44
2021/12/12 01:04:43;;;;;;;2.33;1.33;;;;;;;19.73;31.92;99956.63;5152377;27;20402;-44
2021/12/12 01:07:13;;;;;;;1.70;1.13;;;;;;;19.71;31.93;99948.63;5152241;27;20061;-44
2021/12/12 01:09:47;;;;;;;2.42;1.30;;;;;;;19.72;32.04;99941.94;5152148;27;20495;-44
2021/12/12 01:12:16;;;;;;;2.03;1.13;;;;;;;19.73;31.96;99949.09;5152183;27;20073;-44
2021/12/12 01:14:47;;;;;;;1.30;0.85;;;;;;;19.72;31.82;99950.25;5152365;27;20046;-56
2021/12/12 01:17:25;;;;;;;2.20;1.30;;;;;;;19.73;31.90;99957.44;5152341;27;20042;-54
2021/12/12 01:20:15;;;;;;;2.33;1.30;;;;;;;19.73;31.82;99962.97;5151465;27;20526;-54
2021/12/12 01:22:42;;;;;;;2.03;1.13;;;;;;;19.74;31.88;99963.78;5151707;27;20045;-55
2021/12/12 01:25:16;;;;;;;2.00;1.10;;;;;;;19.73;31.83;99957.44;5152024;27;20050;-55
2021/12/12 01:27:41;;;;;;;2.90;1.60;;;;;;;19.75;31.75;99966.19;5151960;27;20425;-54
2021/12/12 01:30:10;;;;;;;2.15;1.13;;;;;;;19.75;31.89;99968.97;5151830;27;20589;-54
2021/12/12 01:32:36;;;;;;;2.28;1.25;;;;;;;19.76;31.77;99970.59;5151681;27;20046;-56
2021/12/12 01:35:13;;;;;;;2.30;1.30;;;;;;;19.75;31.86;99980.06;5151907;27;20043;-53
2021/12/12 01:37:42;;;;;;;2.17;1.23;;;;;;;19.75;31.82;99976.50;5151710;27;20043;-56
2021/12/12 01:40:13;;;;;;;1.85;1.10;;;;;;;19.75;31.85;99987.59;5151593;27;20046;-55
2021/12/12 01:42:41;;;;;;;2.08;1.10;;;;;;;19.74;31.81;99983.22;5151745;27;20039;-55
2021/12/12 01:45:09;;;;;;;1.98;1.25;;;;;;;19.73;31.86;99985.19;5151694;27;20038;-55
2021/12/12 01:47:44;;;;;;;2.47;1.13;;;;;;;19.75;31.80;99991.19;5151736;27;20053;-55
2021/12/12 01:50:19;;;;;;;2.67;1.38;;;;;;;19.74;31.84;99997.91;5151699;27;20053;-55
2021/12/12 01:52:46;;;;;;;1.83;1.13;;;;;;;19.72;32.01;99994.66;5151469;27;20498;-54
2021/12/12 01:55:36;;;;;;;1.77;1.08;;;;;;;19.73;31.88;100001.84;5151479;27;20053;-55
2021/12/12 01:58:07;;;;;;;2.70;1.48;;;;;;;19.73;31.74;100001.84;5151429;27;20095;-55
2021/12/12 02:00:42;;;;;;;2.22;1.20;;;;;;;19.74;31.76;100003.44;5150686;27;20039;-55
2021/12/12 02:03:11;;;;;;;1.77;1.05;;;;;;;19.75;31.76;99999.50;5151339;27;20116;-55
2021/12/12 02:05:38;;;;;;;2.40;1.08;;;;;;;19.75;31.78;100013.38;5151424;27;20463;-54
2021/12/12 02:08:09;;;;;;;2.33;1.27;;;;;;;19.75;31.82;100009.81;5149929;27;20129;-55
2021/12/12 02:10:40;;;;;;;1.77;1.10;;;;;;;19.75;31.80;100010.59;5151092;27;20046;-55
2021/12/12 02:13:09;;;;;;;1.77;1.13;;;;;;;19.76;31.74;100014.19;5151145;27;20054;-56
2021/12/12 02:15:37;;;;;;;1.63;1.13;;;;;;;19.77;31.70;100024.94;5151153;27;20499;-55
2021/12/12 02:18:08;;;;;;;1.83;1.10;;;;;;;19.76;31.77;100022.50;5151153;27;20061;-54
2021/12/12 02:20:43;;;;;;;1.90;1.10;;;;;;;19.76;31.80;100026.09;5151122;27;20472;-55
2021/12/12 02:36:53;;;;;;;2.38;1.20;;;;;;;19.74;31.63;100036.75;5151183;27;20096;-54
2021/12/12 02:39:19;;;;;;;2.10;1.30;;;;;;;19.75;31.77;100032.81;5151032;27;20069;-56
2021/12/12 02:41:48;;;;;;;2.35;1.20;;;;;;;19.75;31.75;100035.59;5150902;27;20047;-55
2021/12/12 02:44:15;;;;;;;2.72;1.00;;;;;;;19.75;31.71;100045.88;5150835;27;20049;-53
2021/12/12 02:46:43;;;;;;;1.85;1.00;;;;;;;19.72;31.68;100036.31;5150802;27;20034;-44
2021/12/12 02:49:24;;;;;;;2.42;1.10;;;;;;;19.75;31.68;100034.78;5150744;27;20494;-44
2021/12/12 02:51:53;;;;;;;1.50;0.80;;;;;;;19.76;31.59;100047.50;5150707;27;20079;-44
2021/12/12 02:54:19;;;;;;;1.73;1.00;;;;;;;19.75;31.64;100032.81;5150755;27;20063;-44
2021/12/12 02:56:48;;;;;;;1.85;1.10;;;;;;;19.77;31.59;100041.59;5150925;27;20088;-44
2021/12/12 02:59:19;;;;;;;1.85;1.00;;;;;;;19.77;31.59;100051.88;5150732;27;20056;-45
2021/12/12 03:01:58;;;;;;;2.20;1.00;;;;;;;19.77;31.61;100047.13;5147410;27;20035;-44
2021/12/12 03:04:26;;;;;;;2.40;1.27;;;;;;;19.76;31.58;100047.50;5150623;27;20047;-44
2021/12/12 03:06:52;;;;;;;1.65;1.00;;;;;;;19.75;31.54;100048.66;5150541;27;20039;-44
2021/12/12 03:09:23;;;;;;;2.70;1.30;;;;;;;19.75;31.57;100043.09;5150697;27;20053;-44
2021/12/12 03:11:53;;;;;;;2.03;1.10;;;;;;;19.75;31.56;100045.88;5150558;27;20046;-54
2021/12/12 03:14:19;;;;;;;1.90;1.02;;;;;;;19.74;31.60;100042.31;5150694;27;20063;-44
2021/12/12 03:16:46;;;;;;;2.10;1.20;;;;;;;19.74;31.55;100049.81;5150521;27;20039;-44
2021/12/12 03:19:12;;;;;;;2.35;1.20;;;;;;;19.72;31.65;100044.63;5152702;27;20485;-44
2021/12/12 03:21:42;;;;;;;2.08;1.25;;;;;;;19.75;31.58;100051.44;5154062;27;20038;-44
2021/12/12 03:24:12;;;;;;;2.25;1.30;;;;;;;19.73;31.59;100051.78;5153819;27;20491;-44
2021/12/12 03:26:43;;;;;;;2.28;1.20;;;;;;;19.73;31.60;100059.31;5153854;27;20497;-44
2021/12/12 03:29:09;;;;;;;2.20;1.40;;;;;;;19.73;31.59;100057.34;5153797;27;20035;-44
2021/12/12 03:32:04;;;;;;;2.35;1.30;;;;;;;19.74;31.47;100050.63;5153924;27;20417;-44
2021/12/12 03:34:34;;;;;;;3.08;1.40;;;;;;;19.74;31.54;100050.63;5150745;27;20501;-44
2021/12/12 03:37:01;;;;;;;2.00;1.23;;;;;;;19.76;31.49;100051.06;5153784;27;20050;-44
2021/12/12 03:39:30;;;;;;;1.75;1.20;;;;;;;19.75;31.43;100046.69;5153611;27;20054;-44
2021/12/12 03:41:58;;;;;;;2.45;1.30;;;;;;;19.74;31.56;100050.63;5153543;27;20051;-44
2021/12/12 03:44:26;;;;;;;2.45;1.30;;;;;;;19.74;31.48;100055.38;5153387;27;20085;-44
2021/12/12 03:46:57;;;;;;;2.17;1.35;;;;;;;19.73;31.56;100065.66;5153365;27;20430;-44
2021/12/12 03:49:23;;;;;;;1.95;1.10;;;;;;;19.74;31.54;100067.28;5153390;27;20121;-44
2021/12/12 03:51:50;;;;;;;2.65;1.25;;;;;;;19.72;31.34;100068.81;5153532;27;20635;-44
2021/12/12 03:54:16;;;;;;;2.03;1.27;;;;;;;19.74;31.42;100074.81;5153462;27;20074;-44
2021/12/12 03:56:42;;;;;;;2.05;1.40;;;;;;;19.76;31.33;100073.28;5153621;27;20038;-54
2021/12/12 03:59:09;;;;;;;2.45;1.40;;;;;;;19.74;31.37;100070.06;5153245;27;20046;-54
2021/12/12 04:01:38;;;;;;;1.70;1.13;;;;;;;19.72;31.48;100064.06;5153470;27;20039;-55
2021/12/12 04:04:12;;;;;;;1.80;1.10;;;;;;;19.71;31.40;100070.75;5153313;27;20051;-54
2021/12/12 04:06:38;;;;;;;2.17;1.30;;;;;;;19.73;31.34;100075.97;5149838;27;20046;-55
2021/12/12 04:09:07;;;;;;;2.38;1.23;;;;;;;19.70;31.32;100074.69;5153249;27;20047;-55
2021/12/12 04:11:38;;;;;;;1.77;1.10;;;;;;;19.71;31.39;100070.75;5153124;27;20047;-55
2021/12/12 04:14:07;;;;;;;2.22;1.20;;;;;;;19.73;31.38;100079.56;5153145;27;20437;-56
2021/12/12 04:16:35;;;;;;;2.15;1.33;;;;;;;19.73;31.38;100075.97;5153149;27;20092;-55
2021/12/12 04:19:03;;;;;;;2.47;1.30;;;;;;;19.73;31.35;100082.31;5153052;27;20043;-55
2021/12/12 04:21:29;;;;;;;2.65;1.40;;;;;;;19.72;31.36;100077.94;5152913;27;20045;-54
2021/12/12 04:23:55;;;;;;;2.00;1.20;;;;;;;19.72;31.26;100074.34;5153105;27;20038;-55
2021/12/12 04:26:26;;;;;;;2.50;1.40;;;;;;;19.72;31.40;100075.16;5152701;27;20047;-44
2021/12/12 04:29:12;;;;;;;2.22;1.17;;;;;;;19.72;31.34;100072.38;5152625;27;20039;-44
2021/12/12 04:31:42;;;;;;;2.20;1.40;;;;;;;19.73;31.35;100087.06;5152130;27;20047;-44
2021/12/12 04:34:09;;;;;;;2.13;1.40;;;;;;;19.70;31.48;100083.00;5152739;27;20100;-44
2021/12/12 04:36:39;;;;;;;2.47;1.38;;;;;;;19.70;31.32;100077.47;5152833;27;20043;-44
2021/12/12 04:39:20;;;;;;;2.05;1.20;;;;;;;19.72;31.13;100080.72;5152662;27;20512;-43
2021/12/12 04:41:49;;;;;;;3.03;1.40;;;;;;;19.75;31.33;100085.56;5152795;27;20050;-43
2021/12/12 04:44:31;;;;;;;2.20;1.17;;;;;;;19.73;31.30;100079.56;5152911;27;20042;-44
2021/12/12 04:49:55;;;;;;;2.47;1.25;;;;;;;19.74;31.43;100074.81;5152455;27;20061;-44
2021/12/12 04:52:28;;;;;;;2.15;1.13;;;;;;;19.75;31.22;100071.66;5152603;27;20058;-44
2021/12/12 04:55:00;;;;;;;;;;;;;;;19.79;31.19;100067.03;5152945;27;20142;-44
2021/12/12 04:57:35;;;;;;;2.20;1.30;;;;;;;19.77;31.21;100069.34;5152200;27;19915;-44
2021/12/12 05:00:17;;;;;;;2.47;1.33;;;;;;;19.74;31.19;100074.81;5152410;27;20421;-44
2021/12/12 05:02:57;;;;;;;1.95;1.20;;;;;;;19.77;31.06;100074.09;5152283;27;20137;-44
2021/12/12 05:05:30;;;;;;;2.05;1.25;;;;;;;19.79;31.10;100086.47;5152312;27;20082;-44
2021/12/12 05:08:19;;;;;;;2.22;1.20;;;;;;;19.78;31.19;100087.59;5152157;27;20134;-44
2021/12/12 05:11:07;;;;;;;1.92;1.20;;;;;;;19.81;31.13;100083.34;5148313;27;20043;-44
2021/12/12 05:13:38;;;;;;;1.80;1.10;;;;;;;19.79;31.12;100083.69;5151709;27;20042;-56
2021/12/12 05:16:12;;;;;;;2.00;1.23;;;;;;;19.79;31.08;100083.69;5152311;27;20056;-55
2021/12/12 05:18:49;;;;;;;2.45;1.23;;;;;;;19.78;31.32;100095.94;5152070;27;20039;-55
2021/12/12 05:21:23;;;;;;;2.30;1.30;;;;;;;19.78;31.06;100098.72;5152021;27;20047;-55
2021/12/12 05:23:51;;;;;;;2.08;1.30;;;;;;;19.79;31.07;100094.81;5152084;27;20364;-54
2021/12/12 05:26:25;;;;;;;1.60;1.10;;;;;;;19.78;30.95;100104.25;5151915;27;20039;-55
2021/12/12 05:29:00;;;;;;;2.00;1.35;;;;;;;19.78;31.06;100112.59;5151839;27;20047;-55
2021/12/12 05:31:27;;;;;;;2.33;1.50;;;;;;;19.77;30.88;100113.75;5151720;27;20055;-44
2021/12/12 05:33:54;;;;;;;2.92;1.48;;;;;;;19.81;30.98;100113.06;5149449;27;20050;-55
2021/12/12 05:36:21;;;;;;;2.60;1.50;;;;;;;19.76;30.97;100117.69;5151813;27;20043;-55
2021/12/12 05:38:47;;;;;;;1.98;1.20;;;;;;;19.77;30.75;100124.84;5151612;27;20058;-55
2021/12/12 05:41:17;;;;;;;2.08;1.17;;;;;;;19.78;30.96;100123.69;5151503;27;20135;-55
2021/12/12 05:43:43;;;;;;;2.63;1.63;;;;;;;19.80;30.91;100126.16;5151540;27;20534;-55
2021/12/12 05:46:09;;;;;;;2.20;1.48;;;;;;;19.79;30.91;100121.75;5151489;27;20073;-55
2021/12/12 05:48:35;;;;;;;2.13;1.25;;;;;;;19.81;30.96;100121.41;5151360;27;20054;-55
2021/12/12 05:51:01;;;;;;;2.30;1.40;;;;;;;19.79;31.13;100127.31;5151375;27;20047;-54
2021/12/12 05:53:27;;;;;;;2.60;1.50;;;;;;;19.77;31.03;100132.38;5151053;27;20099;-44
2021/12/12 05:55:53;;;;;;;2.35;1.50;;;;;;;19.76;30.94;100145.44;5151538;27;20050;-56
2021/12/12 05:58:21;;;;;;;2.78;1.58;;;;;;;19.76;30.91;100145.44;5151256;27;20094;-55
2021/12/12 06:00:55;;;;;;;2.72;1.45;;;;;;;19.78;30.88;100153.44;5150957;27;20042;-54
2021/12/12 06:03:24;;;;;;;2.42;1.50;;;;;;;19.78;30.71;100148.69;5151036;27;20052;-55
2021/12/12 06:05:52;;;;;;;2.05;1.38;;;;;;;19.79;30.79;100155.88;5151161;27;20050;-55
2021/12/12 06:08:19;;;;;;;3.15;1.58;;;;;;;19.77;30.84;100163.72;5150914;27;20069;-55
2021/12/12 06:10:46;;;;;;;2.60;1.30;;;;;;;19.79;30.79;100166.16;5151074;27;20050;-54
2021/12/12 06:13:15;;;;;;;2.00;1.30;;;;;;;19.81;30.81;100163.03;5151097;27;20043;-55
2021/12/12 06:15:45;;;;;;;2.33;1.55;;;;;;;19.78;30.77;100159.78;5151040;27;20577;-55
2021/12/12 06:18:12;;;;;;;2.60;1.50;;;;;;;19.77;30.77;100160.13;5151048;27;20043;-54
2021/12/12 06:20:40;;;;;;;1.92;1.30;;;;;;;19.75;30.77;100166.03;5151225;27;20039;-55
2021/12/12 06:23:08;;;;;;;1.83;1.30;;;;;;;19.77;30.80;100165.69;5151121;27;20046;-44
2021/12/12 06:25:33;;;;;;;2.42;1.60;;;;;;;19.79;30.71;100168.94;5151122;27;20072;-44
2021/12/12 06:27:59;;;;;;;2.00;1.30;;;;;;;19.80;30.79;100156.69;5150756;27;20379;-55
2021/12/12 06:30:24;;;;;;;2.40;1.50;;;;;;;19.82;30.73;100154.34;5151029;27;20046;-56
2021/12/12 06:32:52;;;;;;;2.63;1.58;;;;;;;19.77;30.70;100163.72;5150950;27;20039;-44
2021/12/12 06:35:18;;;;;;;2.83;1.60;;;;;;;19.77;30.75;100162.91;5150808;27;20172;-45
2021/12/12 06:37:44;;;;;;;2.20;1.30;;;;;;;19.78;30.65;100179.22;5151005;27;20043;-44
2021/12/12 06:40:16;;;;;;;2.42;1.55;;;;;;;19.76;30.80;100184.31;5150862;27;20049;-56
2021/12/12 06:42:42;;;;;;;2.70;1.58;;;;;;;19.77;30.82;100191.47;5150694;27;20152;-55
2021/12/12 06:45:10;;;;;;;2.88;1.60;;;;;;;19.78;30.86;100195.88;5150831;27;20408;-44
2021/12/12 06:47:36;;;;;;;2.67;1.60;;;;;;;19.78;30.78;100197.84;5150659;27;20490;-44
2021/12/12 06:50:04;;;;;;;2.25;1.33;;;;;;;19.77;30.75;100204.56;5151102;27;20054;-44
2021/12/12 06:52:30;;;;;;;1.75;1.10;;;;;;;19.74;30.88;100200.50;5150819;27;20046;-55
2021/12/12 06:54:56;;;;;;;2.78;1.73;;;;;;;19.76;30.74;100200.97;5154271;27;20159;-44
2021/12/12 06:57:22;;;;;;;3.55;1.80;;;;;;;19.76;30.71;100203.75;5154426;27;20132;-44
2021/12/12 06:59:49;;;;;;;2.78;1.58;;;;;;;19.77;30.71;100207.31;5154568;27;20038;-44
2021/12/12 07:02:16;;;;;;;2.15;1.42;;;;;;;19.75;30.76;100206.88;5154311;27;20043;-44
2021/12/12 07:04:43;;;;;;;2.53;1.52;;;;;;;19.75;30.76;100216.00;5154314;27;20047;-55
2021/12/12 07:07:10;;;;;;;2.00;1.40;;;;;;;19.77;30.70;100207.31;5154091;27;20046;-44
2021/12/12 07:09:37;;;;;;;2.28;1.60;;;;;;;19.77;30.70;100210.91;5154044;27;20121;-45
2021/12/12 07:12:06;;;;;;;2.58;1.60;;;;;;;19.75;30.66;100216.00;5154082;27;20049;-44
2021/12/12 07:14:33;;;;;;;2.30;1.60;;;;;;;19.78;30.66;100220.84;5153941;27;20041;-45
2021/12/12 07:16:59;;;;;;;2.30;1.50;;;;;;;19.78;30.67;100229.19;5154090;27;20034;-55
2021/12/12 07:19:25;;;;;;;2.53;1.48;;;;;;;19.78;30.47;100237.50;5153837;27;20049;-55
2021/12/12 07:21:51;;;;;;;3.00;1.60;;;;;;;19.77;30.56;100240.63;5153668;27;20042;-54
2021/12/12 07:24:19;;;;;;;2.30;1.60;;;;;;;19.73;30.56;100240.53;5153762;27;20045;-55
2021/12/12 07:26:45;;;;;;;2.60;1.45;;;;;;;19.76;30.57;100245.38;5153980;27;20129;-55
2021/12/12 07:29:11;;;;;;;3.05;1.60;;;;;;;19.77;30.49;100255.31;5153800;27;20510;-56
2021/12/12 07:31:40;;;;;;;2.65;1.50;;;;;;;19.76;30.62;100262.03;5153715;27;20042;-55
2021/12/12 07:34:09;;;;;;;3.13;1.70;;;;;;;19.76;30.60;100266.78;5153980;27;20069;-44
2021/12/12 07:36:38;;;;;;;2.22;1.30;;;;;;;19.74;30.59;100269.09;5153855;27;20043;-45
2021/12/12 07:39:11;;;;;;;3.05;1.60;;;;;;;19.72;30.45;100277.78;5153774;27;20091;-44
2021/12/12 07:41:38;;;;;;;2.72;1.60;;;;;;;19.76;30.52;100284.25;5153683;27;20046;-44
2021/12/12 07:44:09;;;;;;;1.98;1.30;;;;;;;19.74;30.53;100292.13;5153444;27;20054;-44
2021/12/12 07:46:35;;;;;;;2.15;1.35;;;;;;;19.74;30.53;100297.66;5153656;27;20078;-44
2021/12/12 07:49:02;;;;;;;2.67;1.50;;;;;;;19.74;30.58;100297.66;5135057;27;20467;-44
2021/12/12 07:51:27;;;;;;;2.63;1.65;;;;;;;19.74;30.53;100297.66;5153522;27;20043;-44
2021/12/12 07:53:57;;;;;;;2.47;1.50;;;;;;;19.75;30.45;100302.06;5153480;27;20095;-44
2021/12/12 07:56:26;;;;;;;2.67;1.60;;;;;;;19.73;30.64;100307.16;5153441;27;20042;-44
2021/12/12 07:58:52;;;;;;;2.80;1.55;;;;;;;19.73;30.64;100306.34;5153293;27;20039;-56
2021/12/12 08:01:19;;;;;;;2.55;1.40;;;;;;;19.74;30.56;100311.53;5153272;27;20047;-55
2021/12/12 08:03:45;;;;;;;2.65;1.50;;;;;;;19.76;30.53;100308.41;5153033;27;20051;-55
2021/12/12 08:06:15;;;;;;;2.67;1.63;;;;;;;19.76;30.53;100313.97;5153055;27;20087;-44
2021/12/12 08:08:42;;;;;;;2.42;1.42;;;;;;;19.76;30.59;100314.78;5153011;27;20074;-44
2021/12/12 08:11:07;;;;;;;2.28;1.40;;;;;;;19.77;30.53;100313.63;5152907;27;20406;-44
2021/12/12 08:13:34;;;;;;;2.55;1.60;;;;;;;19.76;30.40;100311.19;5152917;27;20043;-45
2021/12/12 08:16:01;;;;;;;2.53;1.50;;;;;;;19.81;30.66;100324.03;5153072;27;20074;-44
2021/12/12 08:18:28;;;;;;;2.88;1.65;;;;;;;19.78;30.60;100320.78;5153115;27;20098;-44
2021/12/12 08:20:54;;;;;;;2.53;1.70;;;;;;;19.80;30.57;100323.25;5153125;27;20047;-44
2021/12/12 08:23:22;;;;;;;2.05;1.23;;;;;;;19.77;30.67;100321.94;5152910;27;20472;-44
2021/12/12 08:25:49;;;;;;;2.47;1.60;;;;;;;19.80;30.59;100323.25;5152994;27;20031;-44
2021/12/12 08:28:16;;;;;;;2.40;1.50;;;;;;;19.79;30.61;100325.22;5152710;27;20070;-44
2021/12/12 08:30:43;;;;;;;3.22;1.60;;;;;;;19.79;30.49;100327.97;5153011;27;20043;-44
2021/12/12 08:33:09;;;;;;;2.60;1.75;;;;;;;19.81;30.71;100333.19;5152967;27;20391;-46
2021/12/12 08:35:36;;;;;;;3.28;2.10;;;;;;;19.83;30.57;100327.28;5152904;27;20051;-47
2021/12/12 08:38:05;;;;;;;2.65;1.80;;;;;;;19.84;30.54;100326.13;5153112;27;20066;-45
2021/12/12 08:40:37;;;;;;;2.50;1.60;;;;;;;19.85;30.47;100324.97;5152786;27;20054;-44
2021/12/12 08:43:12;;;;;;;2.65;1.70;;;;;;;19.83;30.45;100327.28;5149954;27;20056;-44
2021/12/12 08:45:41;;;;;;;2.97;1.50;;;;;;;19.85;30.49;100338.84;5152545;27;20596;-44
2021/12/12 08:48:07;;;;;;;2.10;1.30;;;;;;;19.82;30.51;100337.56;5152575;27;20043;-44
2021/12/12 08:50:37;;;;;;;2.42;1.45;;;;;;;19.86;30.40;100346.84;5152755;27;20056;-44
2021/12/12 08:53:05;;;;;;;2.78;1.67;;;;;;;19.88;30.33;100350.06;5149454;27;20046;-44
2021/12/12 08:55:36;;;;;;;2.55;1.58;;;;;;;19.88;30.38;100341.75;5152473;27;20042;-44
2021/12/12 08:58:14;;;;;;;2.50;1.50;;;;;;;19.89;30.33;100348.13;5152499;27;20083;-44
2021/12/12 09:01:09;;;;;;;2.55;1.80;;;;;;;19.90;30.37;100352.50;5152369;27;21359;-44
2021/12/12 09:03:43;;;;;;;2.55;1.40;;;;;;;19.88;30.34;100352.03;5148222;27;20030;-44
2021/12/12 09:06:11;;;;;;;2.78;1.60;;;;;;;19.91;30.28;100356.91;5152348;27;20049;-44
2021/12/12 09:08:50;;;;;;;2.58;1.65;;;;;;;19.91;30.23;100359.69;5152067;27;20051;-44
2021/12/12 09:11:27;;;;;;;2.47;1.30;;;;;;;19.92;30.33;100362.09;5152193;27;20524;-44
2021/12/12 09:14:09;;;;;;;2.40;1.50;;;;;;;19.92;30.25;100370.44;5152004;27;20069;-44
2021/12/12 09:17:03;;;;;;;2.13;1.40;;;;;;;19.92;30.29;100369.63;5151438;27;20068;-45
2021/12/12 09:19:37;;;;;;;2.33;1.40;;;;;;;19.93;30.35;100369.28;5142390;27;20046;-44
2021/12/12 09:22:28;;;;;;;2.25;1.42;;;;;;;19.92;30.19;100366.84;5151777;27;20056;-44
2021/12/12 09:25:01;;;;;;;2.63;1.50;;;;;;;19.95;30.29;100382.81;5151997;27;20053;-44
2021/12/12 09:27:34;;;;;;;2.22;1.50;;;;;;;19.93;30.35;100374.84;5151715;27;20121;-44
2021/12/12 09:30:05;;;;;;;;;;;;;;;20.00;30.21;100377.03;5152389;27;20042;-44
2021/12/12 09:32:47;;;;;;;2.15;1.35;;;;;;;20.02;30.29;100377.50;5151715;27;19915;-44
2021/12/12 09:35:16;;;;;;;2.00;1.33;;;;;;;19.97;30.31;100386.06;5151589;27;20047;-44
2021/12/12 09:37:46;;;;;;;2.92;1.58;;;;;;;19.96;30.30;100382.47;5151830;27;20043;-44
2021/12/12 09:40:16;;;;;;;2.67;1.60;;;;;;;19.98;30.32;100374.59;5151662;27;20060;-44
2021/12/12 09:43:11;;;;;;;2.65;1.52;;;;;;;19.98;30.39;100374.59;5151692;27;20123;-44
2021/12/12 09:45:36;;;;;;;2.78;1.70;;;;;;;20.01;30.37;100384.22;5151585;27;20510;-46
2021/12/12 09:51:42;;;;;;;2.88;1.70;;;;;;;20.04;30.25;100384.34;5151649;27;20406;-55
2021/12/12 09:54:46;;;;;;;3.25;1.80;;;;;;;20.04;30.35;100380.75;5151536;27;20034;-55
2021/12/12 09:57:41;;;;;;;2.40;1.60;;;;;;;20.03;30.28;100381.91;5146620;27;20069;-55
2021/12/12 10:00:06;;;;;;;2.15;1.40;;;;;;;20.05;30.37;100379.59;5148577;27;20047;-55
2021/12/12 10:02:46;;;;;;;2.83;1.70;;;;;;;20.07;30.19;100374.47;5151447;27;20091;-54
2021/12/12 10:05:17;;;;;;;3.92;1.75;;;;;;;20.07;30.16;100377.25;5148719;27;20042;-55
2021/12/12 10:07:50;;;;;;;2.38;1.38;;;;;;;20.10;30.30;100384.13;5148687;27;20049;-55
2021/12/12 10:10:29;;;;;;;2.63;1.65;;;;;;;20.11;30.15;100394.06;5151141;27;20047;-55
2021/12/12 10:13:19;;;;;;;2.60;1.60;;;;;;;20.12;29.96;100387.34;5151361;27;20050;-55
2021/12/12 10:15:54;;;;;;;2.83;1.50;;;;;;;20.11;30.10;100394.88;5151290;27;20043;-54
2021/12/12 10:18:24;;;;;;;2.95;1.70;;;;;;;20.14;30.10;100387.81;5151086;27;20096;-55
2021/12/12 10:21:01;;;;;;;2.65;1.60;;;;;;;20.16;30.00;100385.50;5151108;27;20059;-55
2021/12/12 10:23:35;;;;;;;2.20;1.30;;;;;;;20.15;30.10;100384.69;5151278;27;20477;-56
2021/12/12 10:26:06;;;;;;;2.10;1.20;;;;;;;20.17;30.11;100384.34;5148697;27;20050;-55
2021/12/12 10:28:42;;;;;;;2.35;1.42;;;;;;;20.20;30.17;100380.88;5152329;27;20042;-54
2021/12/12 10:31:10;;;;;;;2.35;1.40;;;;;;;20.21;30.05;100380.50;5154921;27;20046;-55
2021/12/12 10:33:43;;;;;;;2.33;1.40;;;;;;;20.23;29.83;100385.75;5154716;27;20463;-54
2021/12/12 10:36:16;;;;;;;2.33;1.25;;;;;;;20.25;29.98;100383.41;5154804;27;20042;-56
2021/12/12 10:38:46;;;;;;;;;;;;;;;20.28;29.78;100383.50;5155042;27;20054;-55
2021/12/12 10:41:21;;;;;;;2.60;1.42;;;;;;;20.27;29.87;100386.66;5150867;27;19959;-55
2021/12/12 10:43:56;;;;;;;2.40;1.30;;;;;;;20.25;29.96;100378.66;5151900;27;20043;-55
2021/12/12 10:47:01;;;;;;;2.25;1.42;;;;;;;20.26;29.99;100380.28;5154458;27;20074;-55
2021/12/12 10:49:52;;;;;;;2.15;1.20;;;;;;;20.29;29.83;100378.81;5134534;27;20501;-54
2021/12/12 10:52:31;;;;;;;2.25;1.27;;;;;;;20.29;29.83;100379.59;5154682;27;20521;-44
2021/12/12 10:55:04;;;;;;;2.72;1.50;;;;;;;20.30;29.86;100370.13;5154186;27;20051;-44
2021/12/12 10:57:32;;;;;;;;;;;;;;;20.35;29.71;100371.81;5155079;27;20058;-44
2021/12/12 11:00:20;;;;;;;2.20;1.30;;;;;;;20.32;29.84;100362.22;5154515;27;19938;-55
2021/12/12 11:03:01;;;;;;;2.30;1.27;;;;;;;20.33;29.84;100369.41;5150632;27;20091;-55
2021/12/12 11:05:32;;;;;;;2.30;1.40;;;;;;;20.31;29.89;100363.38;5154252;27;20046;-55
2021/12/12 11:08:14;;;;;;;2.03;1.40;;;;;;;20.34;29.63;100361.88;5154138;27;20051;-54
2021/12/12 11:10:43;;;;;;;2.22;1.30;;;;;;;20.33;29.69;100355.50;5154111;27;20155;-55
2021/12/12 11:13:17;;;;;;;2.00;1.25;;;;;;;20.34;29.77;100347.97;5135630;27;20035;-44
2021/12/12 11:15:56;;;;;;;1.85;1.25;;;;;;;20.37;29.69;100352.84;5154053;27;20047;-44
2021/12/12 11:18:29;;;;;;;2.47;1.45;;;;;;;20.38;29.68;100348.91;5154063;27;20043;-44
2021/12/12 11:21:04;;;;;;;2.53;1.33;;;;;;;20.41;29.62;100347.41;5154128;27;20452;-44
2021/12/12 11:23:58;;;;;;;1.67;1.10;;;;;;;20.41;29.71;100352.97;5154115;27;20039;-44
2021/12/12 11:26:34;;;;;;;2.15;1.40;;;;;;;20.42;29.57;100340.69;5131293;27;20558;-44
2021/12/12 11:29:03;;;;;;;2.17;1.30;;;;;;;20.41;29.65;100344.63;5153891;27;20095;-44
2021/12/12 11:31:42;;;;;;;2.40;1.27;;;;;;;20.42;29.65;100349.81;5154052;27;20042;-44
2021/12/12 11:34:09;;;;;;;2.25;1.20;;;;;;;20.44;29.67;100347.56;5153954;27;20066;-44
2021/12/12 11:36:48;;;;;;;2.78;1.35;;;;;;;20.43;29.64;100345.06;5154050;27;20039;-44
2021/12/12 11:39:48;;;;;;;2.25;1.35;;;;;;;20.44;29.74;100341.16;5151965;27;20038;-44
2021/12/12 11:42:36;;;;;;;3.13;1.40;;;;;;;20.44;29.58;100341.16;5049338;28;20718;-44
2021/12/12 11:45:10;;;;;;;1.83;1.02;;;;;;;20.43;29.70;100340.34;5049384;28;20045;-44
2021/12/12 11:48:12;;;;;;;2.50;1.45;;;;;;;20.41;29.76;100336.28;5047598;28;20461;-44
2021/12/12 11:50:46;;;;;;;1.90;1.25;;;;;;;20.41;29.75;100336.28;5047688;28;20041;-53
2021/12/12 11:53:18;;;;;;;1.90;1.10;;;;;;;20.39;29.84;100333.06;5049316;28;20103;-55
2021/12/12 11:55:46;;;;;;;1.95;1.25;;;;;;;20.40;29.87;100324.38;5049280;28;20045;-55
2021/12/12 11:58:29;;;;;;;2.35;1.27;;;;;;;20.39;29.83;100322.75;5049204;28;20448;-55
2021/12/12 12:01:01;;;;;;;1.77;1.10;;;;;;;20.37;29.75;100324.25;5047756;28;20102;-44
2021/12/12 12:03:35;;;;;;;2.50;1.27;;;;;;;20.34;29.56;100328.53;5049071;28;20487;-44
2021/12/12 12:06:13;;;;;;;2.00;1.30;;;;;;;20.33;29.77;100336.06;5048939;28;20057;-44